sensor_id;sensor_type;location;lat;lon;timestamp;temperature;humidity
21267;DHT22;10791;53.108;18.326;2023-08-17T00:03:28;19.60;99.90
21267;DHT22;10791;53.108;18.326;2023-08-17T00:08:31;19.50;99.90
21267;DHT22;10791;53.108;18.326;2023-08-17T00:13:35;19.50;99.90
21267;DHT22;10791;53.108;18.326;2023-08-17T00:18:38;19.50;99.90
21267;DHT22;10791;53.108;18.326;2023-08-17T00:23:41;19.60;99.90
21267;DHT22;10791;53.108;18.326;2023-08-17T00:28:45;19.70;99.90
21267;DHT22;10791;53.108;18.326;2023-08-17T00:33:48;19.50;99.90
21267;DHT22;10791;53.108;18.326;2023-08-17T00:38:51;19.50;99.90
21267;DHT22;10791;53.108;18.326;2023-08-17T00:43:55;19.50;99.90
21267;DHT22;10791;53.108;18.326;2023-08-17T00:48:59;19.30;99.90
21267;DHT22;10791;53.108;18.326;2023-08-17T00:54:02;19.20;99.90
21267;DHT22;10791;53.108;18.326;2023-08-17T00:59:06;19.20;99.90
21267;DHT22;10791;53.108;18.326;2023-08-17T01:04:09;19.10;99.90
21267;DHT22;10791;53.108;18.326;2023-08-17T01:09:13;19.10;99.90
21267;DHT22;10791;53.108;18.326;2023-08-17T01:19:29;19.00;99.90
21267;DHT22;10791;53.108;18.326;2023-08-17T01:24:32;19.00;99.90
21267;DHT22;10791;53.108;18.326;2023-08-17T01:29:36;18.90;99.90
21267;DHT22;10791;53.108;18.326;2023-08-17T01:34:53;18.80;99.90
21267;DHT22;10791;53.108;18.326;2023-08-17T01:39:58;18.80;99.90
21267;DHT22;10791;53.108;18.326;2023-08-17T01:45:02;18.70;99.90
21267;DHT22;10791;53.108;18.326;2023-08-17T01:50:05;18.60;99.90
21267;DHT22;10791;53.108;18.326;2023-08-17T01:55:09;18.60;99.90
21267;DHT22;10791;53.108;18.326;2023-08-17T02:00:12;18.60;99.90
21267;DHT22;10791;53.108;18.326;2023-08-17T02:05:16;18.60;99.90
21267;DHT22;10791;53.108;18.326;2023-08-17T02:10:19;18.60;99.90
21267;DHT22;10791;53.108;18.326;2023-08-17T02:15:22;18.70;99.90
21267;DHT22;10791;53.108;18.326;2023-08-17T02:20:25;18.60;99.90
21267;DHT22;10791;53.108;18.326;2023-08-17T02:25:28;18.60;99.90
21267;DHT22;10791;53.108;18.326;2023-08-17T02:30:38;18.50;99.90
21267;DHT22;10791;53.108;18.326;2023-08-17T02:35:41;18.50;99.90
21267;DHT22;10791;53.108;18.326;2023-08-17T02:40:44;18.50;99.90
21267;DHT22;10791;53.108;18.326;2023-08-17T02:45:50;18.50;99.90
21267;DHT22;10791;53.108;18.326;2023-08-17T02:50:53;18.50;99.90
21267;DHT22;10791;53.108;18.326;2023-08-17T02:55:56;18.50;99.90
21267;DHT22;10791;53.108;18.326;2023-08-17T03:01:02;18.60;99.90
21267;DHT22;10791;53.108;18.326;2023-08-17T03:06:08;18.60;99.90
21267;DHT22;10791;53.108;18.326;2023-08-17T03:11:11;18.60;99.90
21267;DHT22;10791;53.108;18.326;2023-08-17T03:16:14;18.50;99.90
21267;DHT22;10791;53.108;18.326;2023-08-17T03:21:18;18.50;99.90
21267;DHT22;10791;53.108;18.326;2023-08-17T03:26:22;18.60;99.90
21267;DHT22;10791;53.108;18.326;2023-08-17T03:31:25;18.60;99.90
21267;DHT22;10791;53.108;18.326;2023-08-17T03:36:29;18.60;99.90
21267;DHT22;10791;53.108;18.326;2023-08-17T03:41:32;18.60;99.90
21267;DHT22;10791;53.108;18.326;2023-08-17T03:46:35;18.50;99.90
21267;DHT22;10791;53.108;18.326;2023-08-17T03:51:38;18.50;99.90
21267;DHT22;10791;53.108;18.326;2023-08-17T03:56:41;18.60;99.90
21267;DHT22;10791;53.108;18.326;2023-08-17T04:01:44;18.60;99.90
21267;DHT22;10791;53.108;18.326;2023-08-17T04:06:48;18.40;99.90
21267;DHT22;10791;53.108;18.326;2023-08-17T04:11:51;18.40;99.90
21267;DHT22;10791;53.108;18.326;2023-08-17T04:16:54;18.50;99.90
21267;DHT22;10791;53.108;18.326;2023-08-17T04:21:58;18.60;99.90
21267;DHT22;10791;53.108;18.326;2023-08-17T04:27:01;18.60;99.90
21267;DHT22;10791;53.108;18.326;2023-08-17T04:32:05;18.60;99.90
21267;DHT22;10791;53.108;18.326;2023-08-17T04:37:08;18.60;99.90
21267;DHT22;10791;53.108;18.326;2023-08-17T04:42:12;18.70;99.90
21267;DHT22;10791;53.108;18.326;2023-08-17T04:47:15;18.70;99.90
21267;DHT22;10791;53.108;18.326;2023-08-17T04:52:19;18.80;99.90
21267;DHT22;10791;53.108;18.326;2023-08-17T04:57:22;18.90;99.90
21267;DHT22;10791;53.108;18.326;2023-08-17T05:02:25;19.00;99.90
21267;DHT22;10791;53.108;18.326;2023-08-17T05:07:28;19.00;99.90
21267;DHT22;10791;53.108;18.326;2023-08-17T05:12:31;19.10;99.90
21267;DHT22;10791;53.108;18.326;2023-08-17T05:17:34;19.10;99.90
21267;DHT22;10791;53.108;18.326;2023-08-17T05:22:37;19.20;99.90
21267;DHT22;10791;53.108;18.326;2023-08-17T05:27:40;19.10;99.90
21267;DHT22;10791;53.108;18.326;2023-08-17T05:32:43;19.10;99.90
21267;DHT22;10791;53.108;18.326;2023-08-17T05:37:47;19.00;99.90
21267;DHT22;10791;53.108;18.326;2023-08-17T05:42:50;19.10;99.90
21267;DHT22;10791;53.108;18.326;2023-08-17T05:47:53;19.10;99.90
21267;DHT22;10791;53.108;18.326;2023-08-17T05:52:56;19.10;99.90
21267;DHT22;10791;53.108;18.326;2023-08-17T05:58:01;19.20;99.90
21267;DHT22;10791;53.108;18.326;2023-08-17T06:03:04;19.10;99.90
21267;DHT22;10791;53.108;18.326;2023-08-17T06:08:08;19.10;99.90
21267;DHT22;10791;53.108;18.326;2023-08-17T06:13:11;19.10;99.90
21267;DHT22;10791;53.108;18.326;2023-08-17T06:18:14;19.20;99.90
21267;DHT22;10791;53.108;18.326;2023-08-17T06:23:18;19.30;99.90
21267;DHT22;10791;53.108;18.326;2023-08-17T06:28:21;19.50;99.90
21267;DHT22;10791;53.108;18.326;2023-08-17T06:33:24;19.60;99.90
21267;DHT22;10791;53.108;18.326;2023-08-17T06:38:28;19.80;99.90
21267;DHT22;10791;53.108;18.326;2023-08-17T06:43:31;19.90;99.90
21267;DHT22;10791;53.108;18.326;2023-08-17T06:48:37;20.20;99.90
21267;DHT22;10791;53.108;18.326;2023-08-17T06:53:43;20.30;99.90
21267;DHT22;10791;53.108;18.326;2023-08-17T06:58:47;20.60;99.90
21267;DHT22;10791;53.108;18.326;2023-08-17T07:03:50;21.00;99.90
21267;DHT22;10791;53.108;18.326;2023-08-17T07:08:53;21.30;99.90
21267;DHT22;10791;53.108;18.326;2023-08-17T07:13:56;21.30;99.90
21267;DHT22;10791;53.108;18.326;2023-08-17T07:18:59;21.20;99.90
21267;DHT22;10791;53.108;18.326;2023-08-17T07:24:13;21.20;99.90
21267;DHT22;10791;53.108;18.326;2023-08-17T07:29:19;21.20;99.90
21267;DHT22;10791;53.108;18.326;2023-08-17T07:34:23;21.30;99.90
21267;DHT22;10791;53.108;18.326;2023-08-17T07:39:25;21.30;99.90
21267;DHT22;10791;53.108;18.326;2023-08-17T07:44:29;21.30;99.90
21267;DHT22;10791;53.108;18.326;2023-08-17T07:49:34;21.30;99.90
21267;DHT22;10791;53.108;18.326;2023-08-17T07:54:37;21.30;99.90
21267;DHT22;10791;53.108;18.326;2023-08-17T07:59:40;21.50;99.90
21267;DHT22;10791;53.108;18.326;2023-08-17T08:04:43;21.60;99.90
21267;DHT22;10791;53.108;18.326;2023-08-17T08:09:46;21.70;99.90
21267;DHT22;10791;53.108;18.326;2023-08-17T08:14:49;21.80;99.90
21267;DHT22;10791;53.108;18.326;2023-08-17T08:19:53;22.00;99.90
21267;DHT22;10791;53.108;18.326;2023-08-17T08:24:58;22.20;99.90
21267;DHT22;10791;53.108;18.326;2023-08-17T08:30:01;22.30;99.90
21267;DHT22;10791;53.108;18.326;2023-08-17T08:35:04;22.40;99.90
21267;DHT22;10791;53.108;18.326;2023-08-17T08:40:11;22.80;99.90
21267;DHT22;10791;53.108;18.326;2023-08-17T08:45:17;23.20;99.90
21267;DHT22;10791;53.108;18.326;2023-08-17T08:50:21;23.20;99.90
21267;DHT22;10791;53.108;18.326;2023-08-17T08:55:29;23.20;99.90
21267;DHT22;10791;53.108;18.326;2023-08-17T09:00:33;23.30;99.90
21267;DHT22;10791;53.108;18.326;2023-08-17T09:05:37;23.30;99.90
21267;DHT22;10791;53.108;18.326;2023-08-17T09:10:41;23.60;99.90
21267;DHT22;10791;53.108;18.326;2023-08-17T09:15:44;23.50;99.90
21267;DHT22;10791;53.108;18.326;2023-08-17T09:20:48;23.20;99.90
21267;DHT22;10791;53.108;18.326;2023-08-17T09:25:54;23.20;99.90
21267;DHT22;10791;53.108;18.326;2023-08-17T09:31:02;23.40;99.90
21267;DHT22;10791;53.108;18.326;2023-08-17T09:36:10;23.70;99.90
21267;DHT22;10791;53.108;18.326;2023-08-17T09:41:15;23.90;99.90
21267;DHT22;10791;53.108;18.326;2023-08-17T09:46:19;24.30;99.90
21267;DHT22;10791;53.108;18.326;2023-08-17T09:51:24;24.30;99.90
21267;DHT22;10791;53.108;18.326;2023-08-17T09:56:27;24.20;99.90
21267;DHT22;10791;53.108;18.326;2023-08-17T10:01:31;24.30;99.90
21267;DHT22;10791;53.108;18.326;2023-08-17T10:06:36;24.40;99.90
21267;DHT22;10791;53.108;18.326;2023-08-17T10:11:43;24.90;99.90
21267;DHT22;10791;53.108;18.326;2023-08-17T10:16:57;25.50;99.90
21267;DHT22;10791;53.108;18.326;2023-08-17T10:22:12;26.00;99.90
21267;DHT22;10791;53.108;18.326;2023-08-17T10:27:21;26.10;99.90
21267;DHT22;10791;53.108;18.326;2023-08-17T10:32:25;26.30;99.90
21267;DHT22;10791;53.108;18.326;2023-08-17T10:37:29;26.20;99.90
21267;DHT22;10791;53.108;18.326;2023-08-17T10:42:34;26.00;99.90
21267;DHT22;10791;53.108;18.326;2023-08-17T10:47:38;26.00;99.90
21267;DHT22;10791;53.108;18.326;2023-08-17T10:52:44;26.00;99.90
21267;DHT22;10791;53.108;18.326;2023-08-17T10:57:51;25.70;99.90
21267;DHT22;10791;53.108;18.326;2023-08-17T11:07:59;26.00;99.90
21267;DHT22;10791;53.108;18.326;2023-08-17T11:13:02;26.30;99.90
21267;DHT22;10791;53.108;18.326;2023-08-17T11:18:06;26.60;99.90
21267;DHT22;10791;53.108;18.326;2023-08-17T11:23:12;26.90;99.90
21267;DHT22;10791;53.108;18.326;2023-08-17T11:28:15;27.20;99.90
21267;DHT22;10791;53.108;18.326;2023-08-17T11:33:18;27.50;99.70
21267;DHT22;10791;53.108;18.326;2023-08-17T11:38:21;27.60;99.20
21267;DHT22;10791;53.108;18.326;2023-08-17T11:43:25;27.50;98.60
21267;DHT22;10791;53.108;18.326;2023-08-17T11:48:29;27.50;98.50
21267;DHT22;10791;53.108;18.326;2023-08-17T11:53:39;27.80;97.70
21267;DHT22;10791;53.108;18.326;2023-08-17T11:58:43;28.00;96.90
21267;DHT22;10791;53.108;18.326;2023-08-17T12:03:48;28.20;97.10
21267;DHT22;10791;53.108;18.326;2023-08-17T12:08:52;28.50;95.70
21267;DHT22;10791;53.108;18.326;2023-08-17T12:13:56;28.60;95.00
21267;DHT22;10791;53.108;18.326;2023-08-17T12:19:00;28.70;95.10
21267;DHT22;10791;53.108;18.326;2023-08-17T12:24:08;28.90;94.40
21267;DHT22;10791;53.108;18.326;2023-08-17T12:29:11;29.00;93.70
21267;DHT22;10791;53.108;18.326;2023-08-17T12:34:14;29.10;93.20
21267;DHT22;10791;53.108;18.326;2023-08-17T12:39:17;29.20;93.00
21267;DHT22;10791;53.108;18.326;2023-08-17T12:44:21;29.40;92.40
21267;DHT22;10791;53.108;18.326;2023-08-17T12:49:24;29.30;91.70
21267;DHT22;10791;53.108;18.326;2023-08-17T12:54:27;29.40;91.50
21267;DHT22;10791;53.108;18.326;2023-08-17T12:59:30;29.60;91.10
21267;DHT22;10791;53.108;18.326;2023-08-17T13:04:33;29.80;90.30
21267;DHT22;10791;53.108;18.326;2023-08-17T13:09:36;29.80;90.70
21267;DHT22;10791;53.108;18.326;2023-08-17T13:14:40;29.90;90.50
21267;DHT22;10791;53.108;18.326;2023-08-17T13:19:43;29.90;89.40
21267;DHT22;10791;53.108;18.326;2023-08-17T13:24:46;30.00;89.20
21267;DHT22;10791;53.108;18.326;2023-08-17T13:29:50;30.20;88.80
21267;DHT22;10791;53.108;18.326;2023-08-17T13:34:53;30.40;86.80
21267;DHT22;10791;53.108;18.326;2023-08-17T13:39:57;30.70;85.80
21267;DHT22;10791;53.108;18.326;2023-08-17T13:45:01;30.60;84.80
21267;DHT22;10791;53.108;18.326;2023-08-17T13:50:05;30.70;84.40
21267;DHT22;10791;53.108;18.326;2023-08-17T13:55:08;31.00;84.40
21267;DHT22;10791;53.108;18.326;2023-08-17T14:00:12;31.30;81.50
21267;DHT22;10791;53.108;18.326;2023-08-17T14:05:16;31.30;81.80
21267;DHT22;10791;53.108;18.326;2023-08-17T14:10:20;31.30;80.50
21267;DHT22;10791;53.108;18.326;2023-08-17T14:15:41;31.20;80.40
21267;DHT22;10791;53.108;18.326;2023-08-17T14:20:44;31.10;82.00
21267;DHT22;10791;53.108;18.326;2023-08-17T14:25:47;31.40;81.70
21267;DHT22;10791;53.108;18.326;2023-08-17T14:30:50;31.30;81.00
21267;DHT22;10791;53.108;18.326;2023-08-17T14:35:54;31.50;79.50
21267;DHT22;10791;53.108;18.326;2023-08-17T14:40:57;31.30;79.20
21267;DHT22;10791;53.108;18.326;2023-08-17T14:46:00;31.30;80.40
21267;DHT22;10791;53.108;18.326;2023-08-17T14:51:04;31.50;78.90
21267;DHT22;10791;53.108;18.326;2023-08-17T14:56:07;31.50;78.10
21267;DHT22;10791;53.108;18.326;2023-08-17T15:01:11;31.60;78.10
21267;DHT22;10791;53.108;18.326;2023-08-17T15:06:20;32.10;76.00
21267;DHT22;10791;53.108;18.326;2023-08-17T15:11:36;32.40;75.00
21267;DHT22;10791;53.108;18.326;2023-08-17T15:16:39;33.40;71.80
21267;DHT22;10791;53.108;18.326;2023-08-17T15:21:43;33.40;73.70
21267;DHT22;10791;53.108;18.326;2023-08-17T15:26:46;32.80;74.70
21267;DHT22;10791;53.108;18.326;2023-08-17T15:31:49;31.80;77.70
21267;DHT22;10791;53.108;18.326;2023-08-17T15:36:52;31.60;78.90
21267;DHT22;10791;53.108;18.326;2023-08-17T15:41:56;31.80;78.20
21267;DHT22;10791;53.108;18.326;2023-08-17T15:46:59;31.90;77.90
21267;DHT22;10791;53.108;18.326;2023-08-17T15:52:03;31.70;78.60
21267;DHT22;10791;53.108;18.326;2023-08-17T15:57:09;31.60;78.60
21267;DHT22;10791;53.108;18.326;2023-08-17T16:02:13;31.80;78.00
21267;DHT22;10791;53.108;18.326;2023-08-17T16:07:16;32.10;77.70
21267;DHT22;10791;53.108;18.326;2023-08-17T16:12:19;32.60;76.30
21267;DHT22;10791;53.108;18.326;2023-08-17T16:17:23;32.90;75.50
21267;DHT22;10791;53.108;18.326;2023-08-17T16:22:26;32.40;75.80
21267;DHT22;10791;53.108;18.326;2023-08-17T16:27:29;32.00;77.30
21267;DHT22;10791;53.108;18.326;2023-08-17T16:32:32;31.20;77.90
21267;DHT22;10791;53.108;18.326;2023-08-17T16:37:36;30.50;79.70
21267;DHT22;10791;53.108;18.326;2023-08-17T16:42:42;29.90;82.20
21267;DHT22;10791;53.108;18.326;2023-08-17T16:47:45;29.30;82.70
21267;DHT22;10791;53.108;18.326;2023-08-17T16:52:50;28.80;84.20
21267;DHT22;10791;53.108;18.326;2023-08-17T16:57:53;28.40;84.30
21267;DHT22;10791;53.108;18.326;2023-08-17T17:02:59;28.10;85.70
21267;DHT22;10791;53.108;18.326;2023-08-17T17:08:04;27.80;86.40
21267;DHT22;10791;53.108;18.326;2023-08-17T17:13:07;27.80;86.70
21267;DHT22;10791;53.108;18.326;2023-08-17T17:18:12;27.70;87.30
21267;DHT22;10791;53.108;18.326;2023-08-17T17:23:15;27.70;86.30
21267;DHT22;10791;53.108;18.326;2023-08-17T17:28:19;27.50;85.50
21267;DHT22;10791;53.108;18.326;2023-08-17T17:33:24;27.30;86.00
21267;DHT22;10791;53.108;18.326;2023-08-17T17:38:28;27.10;86.80
21267;DHT22;10791;53.108;18.326;2023-08-17T17:43:31;26.90;87.10
21267;DHT22;10791;53.108;18.326;2023-08-17T17:48:35;26.70;88.50
21267;DHT22;10791;53.108;18.326;2023-08-17T17:53:38;26.60;88.70
21267;DHT22;10791;53.108;18.326;2023-08-17T17:58:42;26.30;89.90
21267;DHT22;10791;53.108;18.326;2023-08-17T18:03:46;26.00;90.40
21267;DHT22;10791;53.108;18.326;2023-08-17T18:08:50;25.70;91.20
21267;DHT22;10791;53.108;18.326;2023-08-17T18:13:53;25.50;91.80
21267;DHT22;10791;53.108;18.326;2023-08-17T18:18:57;25.30;92.30
21267;DHT22;10791;53.108;18.326;2023-08-17T18:24:01;25.20;92.80
21267;DHT22;10791;53.108;18.326;2023-08-17T18:29:06;25.10;93.50
21267;DHT22;10791;53.108;18.326;2023-08-17T18:34:09;24.90;94.00
21267;DHT22;10791;53.108;18.326;2023-08-17T18:39:14;24.70;94.60
21267;DHT22;10791;53.108;18.326;2023-08-17T18:44:19;24.60;95.30
21267;DHT22;10791;53.108;18.326;2023-08-17T18:49:23;24.30;95.90
21267;DHT22;10791;53.108;18.326;2023-08-17T18:54:26;24.20;96.40
21267;DHT22;10791;53.108;18.326;2023-08-17T18:59:30;24.00;97.20
21267;DHT22;10791;53.108;18.326;2023-08-17T19:04:35;23.80;97.90
21267;DHT22;10791;53.108;18.326;2023-08-17T19:09:39;23.60;98.60
21267;DHT22;10791;53.108;18.326;2023-08-17T19:14:43;23.40;99.30
21267;DHT22;10791;53.108;18.326;2023-08-17T19:19:46;23.30;99.80
21267;DHT22;10791;53.108;18.326;2023-08-17T19:24:50;23.20;99.90
21267;DHT22;10791;53.108;18.326;2023-08-17T19:29:55;23.00;99.90
21267;DHT22;10791;53.108;18.326;2023-08-17T19:35:01;22.90;99.90
21267;DHT22;10791;53.108;18.326;2023-08-17T19:40:07;22.80;99.90
21267;DHT22;10791;53.108;18.326;2023-08-17T19:45:13;22.60;99.90
21267;DHT22;10791;53.108;18.326;2023-08-17T19:50:17;22.50;99.90
21267;DHT22;10791;53.108;18.326;2023-08-17T19:55:21;22.40;99.90
21267;DHT22;10791;53.108;18.326;2023-08-17T20:00:25;22.30;99.90
21267;DHT22;10791;53.108;18.326;2023-08-17T20:05:29;22.30;99.90
21267;DHT22;10791;53.108;18.326;2023-08-17T20:10:33;22.10;99.90
21267;DHT22;10791;53.108;18.326;2023-08-17T20:15:37;22.00;99.90
21267;DHT22;10791;53.108;18.326;2023-08-17T20:20:54;21.90;99.90
21267;DHT22;10791;53.108;18.326;2023-08-17T20:26:02;21.80;99.90
21267;DHT22;10791;53.108;18.326;2023-08-17T20:31:06;21.60;99.90
21267;DHT22;10791;53.108;18.326;2023-08-17T20:36:10;21.50;99.90
21267;DHT22;10791;53.108;18.326;2023-08-17T20:41:14;21.40;99.90
21267;DHT22;10791;53.108;18.326;2023-08-17T20:46:17;21.20;99.90
21267;DHT22;10791;53.108;18.326;2023-08-17T20:51:21;21.20;99.90
21267;DHT22;10791;53.108;18.326;2023-08-17T20:56:25;21.10;99.90
21267;DHT22;10791;53.108;18.326;2023-08-17T21:01:29;21.00;99.90
21267;DHT22;10791;53.108;18.326;2023-08-17T21:06:34;21.00;99.90
21267;DHT22;10791;53.108;18.326;2023-08-17T21:11:40;20.90;99.90
21267;DHT22;10791;53.108;18.326;2023-08-17T21:16:43;20.80;99.90
21267;DHT22;10791;53.108;18.326;2023-08-17T21:21:46;20.70;99.90
21267;DHT22;10791;53.108;18.326;2023-08-17T21:26:50;20.70;99.90
21267;DHT22;10791;53.108;18.326;2023-08-17T21:31:53;20.70;99.90
21267;DHT22;10791;53.108;18.326;2023-08-17T21:36:56;20.70;99.90
21267;DHT22;10791;53.108;18.326;2023-08-17T21:41:59;20.60;99.90
21267;DHT22;10791;53.108;18.326;2023-08-17T21:47:02;20.60;99.90
21267;DHT22;10791;53.108;18.326;2023-08-17T21:52:05;20.60;99.90
21267;DHT22;10791;53.108;18.326;2023-08-17T21:57:08;20.60;99.90
21267;DHT22;10791;53.108;18.326;2023-08-17T22:02:12;20.50;99.90
21267;DHT22;10791;53.108;18.326;2023-08-17T22:07:15;20.50;99.90
21267;DHT22;10791;53.108;18.326;2023-08-17T22:12:18;20.40;99.90
21267;DHT22;10791;53.108;18.326;2023-08-17T22:17:21;20.30;99.90
21267;DHT22;10791;53.108;18.326;2023-08-17T22:22:24;20.30;99.90
21267;DHT22;10791;53.108;18.326;2023-08-17T22:27:27;20.30;99.90
21267;DHT22;10791;53.108;18.326;2023-08-17T22:32:31;20.20;99.90
21267;DHT22;10791;53.108;18.326;2023-08-17T22:37:34;20.20;99.90
21267;DHT22;10791;53.108;18.326;2023-08-17T22:42:37;20.10;99.90
21267;DHT22;10791;53.108;18.326;2023-08-17T22:47:41;20.10;99.90
21267;DHT22;10791;53.108;18.326;2023-08-17T22:52:44;20.00;99.90
21267;DHT22;10791;53.108;18.326;2023-08-17T22:57:47;20.10;99.90
21267;DHT22;10791;53.108;18.326;2023-08-17T23:02:50;20.10;99.90
21267;DHT22;10791;53.108;18.326;2023-08-17T23:07:56;20.00;99.90
21267;DHT22;10791;53.108;18.326;2023-08-17T23:13:00;20.10;99.90
21267;DHT22;10791;53.108;18.326;2023-08-17T23:18:03;20.10;99.90
21267;DHT22;10791;53.108;18.326;2023-08-17T23:23:06;20.00;99.90
21267;DHT22;10791;53.108;18.326;2023-08-17T23:28:09;20.00;99.90
21267;DHT22;10791;53.108;18.326;2023-08-17T23:33:12;20.10;99.90
21267;DHT22;10791;53.108;18.326;2023-08-17T23:38:15;20.10;99.90
21267;DHT22;10791;53.108;18.326;2023-08-17T23:43:18;20.00;99.90
21267;DHT22;10791;53.108;18.326;2023-08-17T23:48:22;20.10;99.90
21267;DHT22;10791;53.108;18.326;2023-08-17T23:53:25;20.10;99.90
21267;DHT22;10791;53.108;18.326;2023-08-17T23:58:28;20.10;99.90
